createdAt,value
2023-04-29T00:04:05.319Z,1.62
2023-04-29T00:09:08.646Z,1.89
2023-04-29T00:14:11.426Z,2.00
2023-04-29T00:19:14.202Z,2.03
2023-04-29T00:24:16.881Z,1.96
2023-04-29T00:29:19.884Z,1.69
2023-04-29T00:34:23.032Z,1.55
2023-04-29T00:39:26.090Z,1.47
2023-04-29T00:44:28.908Z,1.38
2023-04-29T00:49:31.995Z,1.30
2023-04-29T00:54:35.881Z,1.25
2023-04-29T00:59:39.247Z,1.29
2023-04-29T01:04:42.041Z,1.38
2023-04-29T01:09:59.391Z,1.44
2023-04-29T01:15:17.471Z,1.48
2023-04-29T01:20:21.694Z,1.57
2023-04-29T01:25:24.669Z,1.75
2023-04-29T01:30:40.718Z,1.82
2023-04-29T01:35:44.009Z,1.85
2023-04-29T01:40:50.481Z,1.89
2023-04-29T01:45:59.643Z,1.89
2023-04-29T01:51:03.135Z,1.97
2023-04-29T01:56:07.360Z,2.07
2023-04-29T02:01:25.119Z,2.13
2023-04-29T02:06:28.682Z,2.18
2023-04-29T02:11:35.778Z,2.29
2023-04-29T02:16:38.739Z,2.31
2023-04-29T02:21:43.465Z,2.30
2023-04-29T02:26:46.374Z,2.30
2023-04-29T02:31:49.214Z,2.34
2023-04-29T02:36:52.474Z,2.44
2023-04-29T02:41:57.495Z,2.53
2023-04-29T02:47:00.295Z,2.55
2023-04-29T02:52:03.178Z,2.66
2023-04-29T02:57:06.263Z,2.70
2023-04-29T03:02:09.414Z,2.88
2023-04-29T03:07:12.760Z,3.00
2023-04-29T03:12:17.257Z,3.08
2023-04-29T03:17:22.169Z,3.07
2023-04-29T03:22:25.226Z,3.17
2023-04-29T03:27:28.720Z,3.28
2023-04-29T03:32:31.977Z,3.33
2023-04-29T03:37:36.005Z,3.40
2023-04-29T03:42:52.181Z,3.56
2023-04-29T03:47:56.550Z,3.64
2023-04-29T03:52:59.682Z,3.65
2023-04-29T03:58:03.038Z,3.80
2023-04-29T04:03:06.158Z,3.83
2023-04-29T04:08:11.697Z,3.86
2023-04-29T04:13:30.561Z,3.98
2023-04-29T04:18:33.975Z,4.00
2023-04-29T04:23:38.412Z,4.11
2023-04-29T04:28:41.807Z,4.22
2023-04-29T04:33:49.403Z,4.30
2023-04-29T04:38:52.727Z,4.35
2023-04-29T04:43:55.583Z,4.31
2023-04-29T04:49:31.703Z,4.56
2023-04-29T04:54:35.898Z,4.62
2023-04-29T04:59:54.018Z,4.72
2023-04-29T05:04:57.368Z,4.74
2023-04-29T05:10:08.937Z,4.87
2023-04-29T05:15:20.077Z,4.96
2023-04-29T05:20:26.650Z,5.07
2023-04-29T05:25:31.625Z,5.21
2023-04-29T05:30:35.294Z,5.36
2023-04-29T05:35:38.387Z,5.31
2023-04-29T05:40:41.568Z,5.27
2023-04-29T05:46:04.158Z,5.42
2023-04-29T05:51:07.197Z,5.62
2023-04-29T05:56:11.441Z,5.70
2023-04-29T06:01:15.634Z,5.74
2023-04-29T06:06:19.150Z,5.78
2023-04-29T06:11:57.316Z,5.99
2023-04-29T06:17:00.442Z,6.17
2023-04-29T06:22:04.320Z,6.14
2023-04-29T06:27:08.307Z,6.08
2023-04-29T06:32:11.436Z,6.07
2023-04-29T06:37:14.682Z,6.09
2023-04-29T06:42:35.556Z,6.13
2023-04-29T06:48:01.526Z,6.26
2023-04-29T06:53:24.901Z,6.28
2023-04-29T06:58:28.130Z,6.43
2023-04-29T07:03:31.833Z,6.50
2023-04-29T07:08:35.349Z,6.69
2023-04-29T07:13:38.678Z,6.88
2023-04-29T07:18:41.974Z,6.86
2023-04-29T07:23:45.393Z,6.78
2023-04-29T07:28:50.746Z,6.75
2023-04-29T07:33:54.217Z,6.97
2023-04-29T07:38:57.576Z,7.01
2023-04-29T07:44:00.970Z,7.17
2023-04-29T07:49:06.152Z,7.19
2023-04-29T07:54:09.489Z,7.19
2023-04-29T07:59:13.023Z,7.32
2023-04-29T08:04:16.536Z,7.32
2023-04-29T08:09:27.004Z,7.31
2023-04-29T08:14:30.528Z,7.32
2023-04-29T08:19:35.234Z,7.34
2023-04-29T08:24:38.702Z,7.38
2023-04-29T08:29:45.688Z,7.56
2023-04-29T08:34:49.223Z,7.52
2023-04-29T08:39:52.311Z,7.40
2023-04-29T08:44:55.411Z,7.60
2023-04-29T08:50:06.314Z,7.66
2023-04-29T08:55:09.815Z,7.85
2023-04-29T09:00:13.714Z,7.86
2023-04-29T09:05:17.141Z,7.70
2023-04-29T09:10:20.467Z,7.71
2023-04-29T09:15:23.588Z,7.79
2023-04-29T09:20:27.851Z,7.76
2023-04-29T09:25:31.751Z,7.74
2023-04-29T09:30:46.748Z,7.76
2023-04-29T09:35:49.652Z,7.96
2023-04-29T09:40:59.581Z,8.03
2023-04-29T09:46:04.455Z,8.02
2023-04-29T09:51:07.527Z,8.02
2023-04-29T09:56:10.515Z,8.10
2023-04-29T10:01:14.807Z,7.91
2023-04-29T10:06:18.505Z,7.79
2023-04-29T10:11:22.077Z,7.81
2023-04-29T10:16:33.375Z,7.90
2023-04-29T10:21:36.835Z,7.85
2023-04-29T10:26:40.064Z,7.78
2023-04-29T10:31:44.293Z,7.74
2023-04-29T10:36:47.867Z,7.67
2023-04-29T10:41:51.811Z,7.72
2023-04-29T10:47:21.660Z,7.74
2023-04-29T10:52:24.667Z,7.77
2023-04-29T10:57:27.595Z,7.67
2023-04-29T11:02:30.619Z,7.60
2023-04-29T11:07:33.676Z,7.69
2023-04-29T11:12:36.812Z,7.59
2023-04-29T11:17:39.915Z,7.51
2023-04-29T11:22:43.507Z,7.57
2023-04-29T11:27:48.897Z,7.48
2023-04-29T11:32:52.546Z,7.37
2023-04-29T11:37:55.726Z,7.29
2023-04-29T11:42:58.951Z,7.20
2023-04-29T11:48:02.572Z,7.14
2023-04-29T11:53:06.454Z,7.04
2023-04-29T11:58:09.322Z,6.86
2023-04-29T12:03:17.574Z,6.98
2023-04-29T12:08:25.121Z,7.12
2023-04-29T12:13:31.551Z,7.56
2023-04-29T12:18:35.213Z,7.28
2023-04-29T12:23:38.070Z,7.16
2023-04-29T12:28:43.681Z,7.24
2023-04-29T12:33:46.572Z,7.74
2023-04-29T12:38:50.110Z,7.39
2023-04-29T12:43:53.086Z,7.96
2023-04-29T12:48:56.011Z,7.67
2023-04-29T12:54:02.307Z,7.11
2023-04-29T12:59:12.642Z,6.80
2023-04-29T13:04:15.522Z,6.58
2023-04-29T13:09:19.143Z,6.56
2023-04-29T13:14:22.798Z,8.25
2023-04-29T13:19:41.162Z,9.70
2023-04-29T13:24:48.387Z,9.97
2023-04-29T13:29:51.629Z,8.82
2023-04-29T13:34:55.193Z,7.40
2023-04-29T13:39:58.239Z,6.65
2023-04-29T13:45:01.599Z,6.14
2023-04-29T14:00:47.151Z,4.73
2023-04-29T14:05:42.776Z,4.39
2023-04-29T14:10:45.954Z,4.16
2023-04-29T14:15:48.906Z,3.86
2023-04-29T14:20:52.044Z,3.67
2023-04-29T14:25:58.840Z,3.52
2023-04-29T14:31:09.625Z,3.37
2023-04-29T14:36:12.685Z,3.27
2023-04-29T14:41:15.649Z,3.10
2023-04-29T14:46:18.589Z,2.98
2023-04-29T14:51:21.689Z,2.91
2023-04-29T14:56:24.425Z,2.86
2023-04-29T15:01:29.848Z,2.87
2023-04-29T15:06:34.202Z,2.81
2023-04-29T15:11:37.200Z,2.60
2023-04-29T15:16:39.987Z,2.37
2023-04-29T15:21:42.981Z,2.21
2023-04-29T15:26:46.942Z,2.10
2023-04-29T15:31:49.863Z,1.90
2023-04-29T15:36:52.898Z,1.69
2023-04-29T15:41:55.918Z,1.65
2023-04-29T15:46:58.743Z,1.54
2023-04-29T15:52:01.816Z,1.47
2023-04-29T15:57:04.856Z,1.46
2023-04-29T16:02:12.070Z,1.41
2023-04-29T16:07:15.094Z,1.33
2023-04-29T16:12:17.936Z,1.34
2023-04-29T16:17:20.904Z,1.28
2023-04-29T16:22:23.712Z,1.21
2023-04-29T16:27:30.321Z,1.08
2023-04-29T16:32:33.569Z,1.01
2023-04-29T16:37:36.769Z,0.92
2023-04-29T16:42:39.533Z,0.81
2023-04-29T16:47:42.935Z,0.68
2023-04-29T16:52:45.826Z,0.79
2023-04-29T16:57:48.557Z,0.73
2023-04-29T17:02:51.667Z,0.72
2023-04-29T17:07:55.303Z,0.71
2023-04-29T17:12:58.166Z,0.70
2023-04-29T17:18:01.051Z,0.67
2023-04-29T17:23:04.018Z,0.75
2023-04-29T17:28:07.313Z,0.72
2023-04-29T17:33:10.207Z,0.61
2023-04-29T17:38:13.099Z,0.58
2023-04-29T17:43:15.875Z,0.37
2023-04-29T17:48:19.754Z,0.30
2023-04-29T17:53:22.609Z,0.18
2023-04-29T17:58:25.459Z,0.02
2023-04-29T18:03:30.615Z,-0.23
2023-04-29T18:08:33.260Z,-0.39
2023-04-29T18:13:36.437Z,-0.49
2023-04-29T18:18:39.328Z,-0.56
2023-04-29T18:23:42.245Z,-0.54
2023-04-29T18:28:46.661Z,-0.68
2023-04-29T18:33:49.387Z,-0.71
2023-04-29T18:38:52.514Z,-0.83
2023-04-29T18:43:55.317Z,-0.99
2023-04-29T18:48:58.100Z,-1.12
2023-04-29T18:54:00.945Z,-1.16
2023-04-29T18:59:04.342Z,-1.25
2023-04-29T19:04:09.898Z,-1.34
2023-04-29T19:09:13.912Z,-1.46
2023-04-29T19:14:16.824Z,-1.37
2023-04-29T19:19:19.623Z,-1.30
2023-04-29T19:24:22.386Z,-1.29
2023-04-29T19:29:25.153Z,-1.41
2023-04-29T19:34:28.023Z,-1.52
2023-04-29T19:39:31.102Z,-1.54
2023-04-29T19:44:33.924Z,-1.52
2023-04-29T19:49:37.642Z,-1.60
2023-04-29T19:54:41.255Z,-1.76
2023-04-29T19:59:44.071Z,-1.92
2023-04-29T20:04:46.861Z,-1.97
2023-04-29T20:09:50.051Z,-2.10
2023-04-29T20:14:52.899Z,-2.14
2023-04-29T20:19:55.984Z,-2.16
2023-04-29T20:24:58.910Z,-2.27
2023-04-29T20:30:01.983Z,-2.36
2023-04-29T20:35:06.800Z,-2.50
2023-04-29T20:40:10.297Z,-2.60
2023-04-29T20:45:13.569Z,-2.68
2023-04-29T20:50:16.522Z,-2.67
2023-04-29T20:55:19.343Z,-2.62
2023-04-29T21:00:23.436Z,-2.76
2023-04-29T21:05:26.562Z,-2.63
2023-04-29T21:10:29.352Z,-2.71
2023-04-29T21:15:32.186Z,-2.75
2023-04-29T21:20:36.302Z,-2.82
2023-04-29T21:25:39.063Z,-2.93
2023-04-29T21:30:41.918Z,-2.91
2023-04-29T21:35:48.997Z,-2.93
2023-04-29T21:40:53.881Z,-3.08
2023-04-29T21:45:56.662Z,-3.02
2023-04-29T21:51:00.353Z,-3.02
2023-04-29T21:56:03.073Z,-3.00
2023-04-29T22:01:25.899Z,-3.02
2023-04-29T22:06:28.893Z,-3.10
2023-04-29T22:11:31.904Z,-3.21
2023-04-29T22:16:36.250Z,-3.22
2023-04-29T22:21:41.122Z,-3.36
2023-04-29T22:26:43.714Z,-3.38
2023-04-29T22:31:46.559Z,-3.33
2023-04-29T22:36:49.357Z,-3.26
2023-04-29T22:41:52.203Z,-3.16
2023-04-29T22:46:55.203Z,-3.24
2023-04-29T22:51:58.101Z,-3.12
2023-04-29T22:57:00.842Z,-3.12
2023-04-29T23:02:03.799Z,-3.07
2023-04-29T23:07:06.852Z,-3.00
2023-04-29T23:12:09.550Z,-3.08
2023-04-29T23:17:12.796Z,-3.03
2023-04-29T23:22:17.339Z,-2.93
2023-04-29T23:27:20.139Z,-2.98
2023-04-29T23:32:24.713Z,-2.86
2023-04-29T23:37:27.629Z,-2.83
2023-04-29T23:42:30.873Z,-2.79
2023-04-29T23:47:33.736Z,-2.67
2023-04-29T23:52:36.552Z,-2.51
2023-04-29T23:57:39.307Z,-2.11
